createdAt,value
2022-12-28T00:01:21.267Z,97363.88
2022-12-28T00:03:48.862Z,97367.44
2022-12-28T00:06:16.174Z,97356.66
2022-12-28T00:08:42.999Z,97356.66
2022-12-28T00:11:20.609Z,97362.31
2022-12-28T00:13:56.386Z,97360.25
2022-12-28T00:16:31.580Z,97359.25
2022-12-28T00:19:01.016Z,97349.75
2022-12-28T00:21:28.761Z,97337.13
2022-12-28T00:23:58.721Z,97340.47
2022-12-28T00:26:27.283Z,97322.22
2022-12-28T00:28:59.777Z,97318.88
2022-12-28T00:31:30.550Z,97309.63
2022-12-28T00:33:57.335Z,97313.25
2022-12-28T00:36:23.997Z,97308.84
2022-12-28T00:38:50.978Z,97308.09
2022-12-28T00:41:17.833Z,97297.81
2022-12-28T00:43:46.154Z,97301.91
2022-12-28T00:46:12.837Z,97293.19
2022-12-28T00:48:39.797Z,97286.25
2022-12-28T00:51:11.086Z,97278.53
2022-12-28T00:53:38.040Z,97266.44
2022-12-28T00:56:09.172Z,97258.75
2022-12-28T00:58:36.404Z,97261.81
2022-12-28T01:01:03.929Z,97266.94
2022-12-28T01:03:31.025Z,97260.78
2022-12-28T01:05:58.117Z,97257.72
2022-12-28T01:08:24.739Z,97264.38
2022-12-28T01:10:51.455Z,97269.25
2022-12-28T01:13:18.162Z,97265.09
2022-12-28T01:15:44.822Z,97268.47
2022-12-28T01:18:12.758Z,97266.38
2022-12-28T01:20:40.843Z,97280.00
2022-12-28T01:23:09.113Z,97278.47
2022-12-28T01:25:37.885Z,97280.00
2022-12-28T01:28:05.422Z,97277.94
2022-12-28T01:30:32.076Z,97270.16
2022-12-28T01:32:59.978Z,97284.06
2022-12-28T01:35:26.643Z,97283.78
2022-12-28T01:37:57.397Z,97266.81
2022-12-28T01:40:24.126Z,97276.31
2022-12-28T01:42:50.812Z,97279.69
2022-12-28T01:45:20.072Z,97273.75
2022-12-28T01:47:51.967Z,97268.09
2022-12-28T01:50:23.513Z,97267.59
2022-12-28T01:52:56.918Z,97276.59
2022-12-28T01:55:35.652Z,97266.78
2022-12-28T01:58:08.031Z,97271.69
2022-12-28T02:00:35.372Z,97267.34
2022-12-28T02:03:13.710Z,97253.69
2022-12-28T02:05:44.442Z,97249.50
2022-12-28T02:08:17.313Z,97245.09
2022-12-28T02:10:45.961Z,97235.84
2022-12-28T02:13:17.210Z,97237.13
2022-12-28T02:15:45.506Z,97225.28
2022-12-28T02:18:14.236Z,97230.69
2022-12-28T02:20:47.380Z,97216.00
2022-12-28T02:23:28.072Z,97205.94
2022-12-28T02:26:15.685Z,97196.06
2022-12-28T02:29:20.057Z,97192.19
2022-12-28T02:31:53.623Z,97191.94
2022-12-28T02:34:33.939Z,97201.41
2022-12-28T02:37:07.205Z,97197.50
2022-12-28T02:40:12.816Z,97196.97
2022-12-28T02:42:40.728Z,97181.81
2022-12-28T02:45:45.462Z,97175.88
2022-12-28T02:48:30.497Z,97178.19
2022-12-28T02:51:23.651Z,97186.91
2022-12-28T02:54:07.509Z,97180.75
2022-12-28T02:57:02.138Z,97181.19
2022-12-28T02:59:41.736Z,97180.19
2022-12-28T03:02:28.442Z,97160.88
2022-12-28T03:05:09.344Z,97155.38
2022-12-28T03:08:08.328Z,97154.59
2022-12-28T03:10:45.904Z,97152.34
2022-12-28T03:13:41.370Z,97148.00
2022-12-28T03:16:12.391Z,97137.91
2022-12-28T03:19:00.188Z,97140.50
2022-12-28T03:21:48.745Z,97128.84
2022-12-28T03:24:36.673Z,97118.25
2022-12-28T03:27:28.777Z,97106.66
2022-12-28T03:30:20.923Z,97105.34
2022-12-28T03:32:48.813Z,97097.59
2022-12-28T03:35:17.253Z,97090.06
2022-12-28T03:37:57.212Z,97088.72
2022-12-28T03:40:37.910Z,97081.00
2022-12-28T03:43:29.261Z,97080.81
2022-12-28T03:46:09.763Z,97077.66
2022-12-28T03:48:41.492Z,97082.81
2022-12-28T03:51:08.595Z,97078.94
2022-12-28T03:53:42.039Z,97066.81
2022-12-28T03:56:20.380Z,97066.63
2022-12-28T03:58:48.783Z,97063.25
2022-12-28T04:01:18.236Z,97058.75
2022-12-28T04:03:45.073Z,97053.38
2022-12-28T04:06:16.815Z,97054.66
2022-12-28T04:08:44.827Z,97040.72
2022-12-28T04:11:12.238Z,97044.28
2022-12-28T04:13:39.371Z,97046.31
2022-12-28T04:16:11.097Z,97048.41
2022-12-28T04:18:39.339Z,97053.56
2022-12-28T04:21:06.169Z,97056.31
2022-12-28T04:23:33.079Z,97050.91
2022-12-28T04:26:17.975Z,97050.44
2022-12-28T04:28:46.836Z,97044.69
2022-12-28T04:31:32.788Z,97048.78
2022-12-28T04:34:04.157Z,97038.22
2022-12-28T04:36:34.004Z,97031.53
2022-12-28T04:39:02.202Z,97027.06
2022-12-28T04:41:28.823Z,97019.34
2022-12-28T04:43:56.099Z,97018.81
2022-12-28T04:46:24.162Z,97002.78
2022-12-28T04:48:51.450Z,96999.91
2022-12-28T04:51:22.166Z,96996.84
2022-12-28T04:53:49.658Z,96996.63
2022-12-28T04:56:17.716Z,96977.28
2022-12-28T04:58:47.040Z,96976.69
2022-12-28T05:01:19.187Z,96949.09
2022-12-28T05:03:54.435Z,96942.91
2022-12-28T05:06:24.260Z,96922.75
2022-12-28T05:08:51.759Z,96928.72
2022-12-28T05:11:24.110Z,96913.66
2022-12-28T05:13:51.053Z,96906.19
2022-12-28T05:16:21.483Z,96904.38
2022-12-28T05:18:48.430Z,96884.50
2022-12-28T05:21:21.258Z,96878.81
2022-12-28T05:23:49.187Z,96872.31
2022-12-28T05:26:18.042Z,96870.09
2022-12-28T05:28:45.170Z,96868.28
2022-12-28T05:31:15.183Z,96854.06
2022-12-28T05:33:42.710Z,96862.03
2022-12-28T05:36:12.125Z,96869.47
2022-12-28T05:38:39.014Z,96864.13
2022-12-28T05:41:08.421Z,96865.38
2022-12-28T05:43:35.635Z,96860.38
2022-12-28T05:46:09.743Z,96864.47
2022-12-28T05:48:38.430Z,96854.56
2022-12-28T05:51:11.024Z,96850.44
2022-12-28T05:53:38.283Z,96854.00
2022-12-28T05:56:24.688Z,96843.69
2022-12-28T05:58:57.275Z,96850.53
2022-12-28T06:01:27.758Z,96844.53
2022-12-28T06:04:01.967Z,96842.91
2022-12-28T06:06:29.434Z,96843.88
2022-12-28T06:08:56.562Z,96854.56
2022-12-28T06:11:26.177Z,96847.50
2022-12-28T06:13:53.182Z,96847.22
2022-12-28T06:16:27.433Z,96852.16
2022-12-28T06:18:54.757Z,96866.38
2022-12-28T06:21:30.900Z,96864.47
2022-12-28T06:23:59.192Z,96871.13
2022-12-28T06:26:28.323Z,96877.66
2022-12-28T06:28:55.363Z,96887.94
2022-12-28T06:31:27.685Z,96890.41
2022-12-28T06:33:57.210Z,96908.00
2022-12-28T06:36:26.988Z,96905.41
2022-12-28T06:38:55.875Z,96919.56
2022-12-28T06:41:23.725Z,96923.25
2022-12-28T06:43:51.431Z,96931.88
2022-12-28T06:46:19.773Z,96942.66
2022-12-28T06:48:47.039Z,96947.44
2022-12-28T06:51:16.731Z,96956.41
2022-12-28T06:53:44.456Z,96975.31
2022-12-28T06:56:21.522Z,96976.25
2022-12-28T06:58:49.823Z,96978.28
2022-12-28T07:01:38.435Z,96973.94
2022-12-28T07:04:06.489Z,97000.84
2022-12-28T07:06:39.239Z,97003.41
2022-12-28T07:09:09.780Z,97014.63
2022-12-28T07:11:37.365Z,97027.56
2022-12-28T07:14:04.462Z,97031.69
2022-12-28T07:18:58.851Z,97053.38
2022-12-28T07:21:32.239Z,97051.50
2022-12-28T07:23:59.579Z,97047.38
2022-12-28T07:26:31.092Z,97048.16
2022-12-28T07:28:59.912Z,97054.84
2022-12-28T07:31:30.393Z,97065.25
2022-12-28T07:33:59.347Z,97066.13
2022-12-28T07:36:28.111Z,97062.47
2022-12-28T07:38:55.277Z,97062.47
2022-12-28T07:41:24.337Z,97055.50
2022-12-28T07:43:51.427Z,97057.78
2022-12-28T07:46:23.968Z,97055.34
2022-12-28T07:48:51.678Z,97059.13
2022-12-28T07:51:18.394Z,97051.09
2022-12-28T07:53:47.068Z,97069.56
2022-12-28T07:56:14.253Z,97057.16
2022-12-28T08:01:15.322Z,97084.81
2022-12-28T08:03:44.566Z,97083.34
2022-12-28T08:06:20.354Z,97077.34
2022-12-28T08:08:49.693Z,97080.00
2022-12-28T08:11:18.914Z,97084.41
2022-12-28T08:13:48.833Z,97082.66
2022-12-28T08:16:18.656Z,97105.44
2022-12-28T08:18:46.484Z,97119.63
2022-12-28T08:21:25.319Z,97123.78
2022-12-28T08:23:52.476Z,97148.94
2022-12-28T08:26:22.390Z,97144.34
2022-12-28T08:28:51.827Z,97145.25
2022-12-28T08:31:21.554Z,97159.59
2022-12-28T08:33:49.150Z,97174.53
2022-12-28T08:36:16.615Z,97174.25
2022-12-28T08:38:44.494Z,97165.13
2022-12-28T08:41:13.571Z,97180.09
2022-12-28T08:43:40.433Z,97199.00
2022-12-28T08:46:11.562Z,97193.22
2022-12-28T08:48:38.413Z,97211.53
2022-12-28T08:51:10.820Z,97219.06
2022-12-28T08:53:38.273Z,97238.31
2022-12-28T08:56:12.811Z,97250.41
2022-12-28T08:58:40.918Z,97261.81
2022-12-28T09:01:17.728Z,97260.34
2022-12-28T09:03:47.038Z,97276.66
2022-12-28T09:06:16.911Z,97269.06
2022-12-28T09:08:56.866Z,97302.50
2022-12-28T09:11:30.026Z,97262.84
2022-12-28T09:13:56.857Z,97293.66
2022-12-28T09:16:27.143Z,97296.31
2022-12-28T09:18:58.940Z,97300.44
2022-12-28T09:21:28.375Z,97308.50
2022-12-28T09:23:55.480Z,97324.81
2022-12-28T09:26:25.025Z,97343.59
2022-12-28T09:28:53.929Z,97338.25
2022-12-28T09:31:26.585Z,97337.50
2022-12-28T09:34:34.844Z,97318.44
2022-12-28T09:36:45.940Z,97319.78
2022-12-28T09:39:18.206Z,97321.53
2022-12-28T09:41:56.062Z,97340.91
2022-12-28T09:44:38.301Z,97335.16
2022-12-28T09:47:05.081Z,97338.50
2022-12-28T09:49:42.098Z,97329.09
2022-12-28T09:52:14.951Z,97328.66
2022-12-28T09:54:42.093Z,97357.09
2022-12-28T09:57:14.711Z,97359.09
2022-12-28T09:59:42.054Z,97339.56
2022-12-28T10:02:20.147Z,97347.66
2022-12-28T10:04:50.559Z,97347.22
2022-12-28T10:07:17.630Z,97358.97
2022-12-28T10:09:45.710Z,97367.69
2022-12-28T10:12:19.239Z,97366.63
2022-12-28T10:14:46.688Z,97362.22
2022-12-28T10:17:15.270Z,97365.75
2022-12-28T10:19:46.499Z,97375.22
2022-12-28T10:22:19.990Z,97392.16
2022-12-28T10:24:47.699Z,97411.63
2022-12-28T10:27:29.515Z,97387.97
2022-12-28T10:29:59.283Z,97437.44
2022-12-28T10:32:25.931Z,97459.44
2022-12-28T10:35:00.366Z,97430.50
2022-12-28T10:37:30.301Z,97464.41
2022-12-28T10:40:00.005Z,97476.44
2022-12-28T10:42:32.296Z,97490.66
2022-12-28T10:45:04.894Z,97470.69
2022-12-28T10:47:36.125Z,97441.78
2022-12-28T10:50:36.602Z,97488.13
2022-12-28T10:52:59.994Z,97488.19
2022-12-28T10:55:33.161Z,97494.00
2022-12-28T10:58:33.108Z,97487.69
2022-12-28T11:01:03.087Z,97479.66
2022-12-28T11:03:35.407Z,97492.78
2022-12-28T11:06:12.734Z,97485.31
2022-12-28T11:08:40.746Z,97472.47
2022-12-28T11:11:12.401Z,97480.44
2022-12-28T11:13:40.323Z,97443.06
2022-12-28T11:16:12.765Z,97457.91
2022-12-28T11:18:40.809Z,97494.84
2022-12-28T11:21:12.356Z,97499.50
2022-12-28T11:23:39.411Z,97519.50
2022-12-28T11:26:11.902Z,97519.53
2022-12-28T11:28:42.961Z,97506.00
2022-12-28T11:31:21.150Z,97515.59
2022-12-28T11:33:55.004Z,97486.88
2022-12-28T11:36:22.940Z,97452.19
2022-12-28T11:38:51.933Z,97469.16
2022-12-28T11:41:28.867Z,97478.41
2022-12-28T11:44:02.917Z,97493.41
2022-12-28T11:46:29.653Z,97486.38
2022-12-28T11:49:05.696Z,97495.63
2022-12-28T11:51:36.872Z,97469.75
2022-12-28T11:54:25.161Z,97499.19
2022-12-28T11:56:51.767Z,97509.06
2022-12-28T11:59:32.226Z,97492.25
2022-12-28T12:02:23.433Z,97475.41
2022-12-28T12:04:50.194Z,97458.50
2022-12-28T12:07:30.567Z,97485.63
2022-12-28T12:10:34.121Z,97466.31
2022-12-28T12:13:22.593Z,97455.19
2022-12-28T12:15:50.676Z,97440.56
2022-12-28T12:18:23.978Z,97461.13
2022-12-28T12:20:54.946Z,97450.31
2022-12-28T12:23:44.884Z,97434.41
2022-12-28T12:26:38.206Z,97410.81
2022-12-28T12:29:14.739Z,97345.03
2022-12-28T12:31:48.728Z,97363.47
2022-12-28T12:34:34.758Z,97323.22
2022-12-28T12:37:21.809Z,97290.47
2022-12-28T12:40:14.462Z,97226.81
2022-12-28T12:42:59.486Z,97206.34
2022-12-28T12:45:53.791Z,97163.97
2022-12-28T12:48:43.648Z,97126.59
2022-12-28T12:51:18.625Z,97110.88
2022-12-28T12:53:48.871Z,97106.47
2022-12-28T12:56:40.846Z,97101.72
2022-12-28T12:59:25.862Z,97056.53
2022-12-28T13:02:17.550Z,97062.22
2022-12-28T13:04:47.368Z,97076.22
2022-12-28T13:07:21.649Z,97109.50
2022-12-28T13:09:49.711Z,97135.31
2022-12-28T13:12:19.157Z,97140.50
2022-12-28T13:14:48.103Z,97139.25
2022-12-28T13:17:20.940Z,97191.31
2022-12-28T13:19:47.779Z,97165.66
2022-12-28T13:22:32.331Z,97171.03
2022-12-28T13:24:59.498Z,97141.56
2022-12-28T13:27:33.568Z,97192.72
2022-12-28T13:30:01.313Z,97178.00
2022-12-28T13:32:35.982Z,97188.09
2022-12-28T13:35:20.298Z,97207.19
2022-12-28T13:38:03.702Z,97161.31
2022-12-28T13:40:32.871Z,97202.03
2022-12-28T13:43:18.241Z,97200.38
2022-12-28T13:45:50.903Z,97166.00
2022-12-28T13:48:17.972Z,97180.66
2022-12-28T13:50:45.088Z,97182.78
2022-12-28T13:53:14.443Z,97147.06
2022-12-28T13:55:49.129Z,97192.59
2022-12-28T13:58:19.930Z,97175.31
2022-12-28T14:00:49.850Z,97158.69
2022-12-28T14:03:19.035Z,97138.97
2022-12-28T14:05:49.210Z,97187.84
2022-12-28T14:08:17.277Z,97189.38
2022-12-28T14:10:46.787Z,97168.03
2022-12-28T14:13:14.153Z,97145.28
2022-12-28T14:15:41.777Z,97127.88
2022-12-28T14:18:13.677Z,97137.97
2022-12-28T14:20:51.816Z,97114.44
2022-12-28T14:23:26.446Z,97125.00
2022-12-28T14:25:55.248Z,97100.84
2022-12-28T14:28:28.413Z,97095.03
2022-12-28T14:30:56.283Z,97101.94
2022-12-28T14:33:26.462Z,97087.09
2022-12-28T14:35:57.888Z,97057.34
2022-12-28T14:38:31.961Z,97039.81
2022-12-28T14:41:00.752Z,97018.44
2022-12-28T14:43:30.002Z,96995.13
2022-12-28T14:46:07.646Z,96978.06
2022-12-28T14:48:43.002Z,96965.09
2022-12-28T14:51:17.693Z,96931.25
2022-12-28T14:53:45.317Z,96926.34
2022-12-28T14:56:17.846Z,96926.50
2022-12-28T14:58:55.941Z,96898.59
2022-12-28T15:01:22.977Z,96875.59
2022-12-28T15:03:49.686Z,96869.81
2022-12-28T15:06:16.503Z,96872.41
2022-12-28T15:08:47.797Z,96858.97
2022-12-28T15:11:14.626Z,96856.09
2022-12-28T15:13:41.635Z,96846.78
2022-12-28T15:16:11.223Z,96829.88
2022-12-28T15:18:44.884Z,96818.13
2022-12-28T15:21:17.524Z,96812.19
2022-12-28T15:23:48.347Z,96808.22
2022-12-28T15:26:15.296Z,96804.88
2022-12-28T15:28:42.521Z,96825.00
2022-12-28T15:31:11.989Z,96817.22
2022-12-28T15:33:39.180Z,96825.28
2022-12-28T15:36:17.635Z,96801.50
2022-12-28T15:38:46.480Z,96795.28
2022-12-28T15:41:32.165Z,96813.28
2022-12-28T15:43:58.817Z,96801.22
2022-12-28T15:46:25.645Z,96806.69
2022-12-28T15:48:52.576Z,96792.84
2022-12-28T15:51:19.401Z,96787.97
2022-12-28T15:53:46.010Z,96775.91
2022-12-28T15:56:27.443Z,96779.88
2022-12-28T15:58:59.042Z,96786.75
2022-12-28T16:01:28.670Z,96791.78
2022-12-28T16:03:57.600Z,96782.78
2022-12-28T16:06:28.938Z,96776.53
2022-12-28T16:08:57.417Z,96778.19
2022-12-28T16:11:24.582Z,96785.69
2022-12-28T16:14:03.116Z,96777.00
2022-12-28T16:16:32.494Z,96787.19
2022-12-28T16:18:59.855Z,96798.03
2022-12-28T16:21:27.212Z,96819.34
2022-12-28T16:23:54.253Z,96824.41
2022-12-28T16:26:21.847Z,96821.47
2022-12-28T16:28:48.840Z,96817.03
2022-12-28T16:31:24.776Z,96827.00
2022-12-28T16:33:55.807Z,96825.75
2022-12-28T16:36:22.805Z,96830.00
2022-12-28T16:38:49.502Z,96830.47
2022-12-28T16:41:18.010Z,96821.34
2022-12-28T16:43:45.681Z,96824.25
2022-12-28T16:46:12.739Z,96818.28
2022-12-28T16:48:39.719Z,96831.09
2022-12-28T16:51:06.819Z,96823.16
2022-12-28T16:53:34.372Z,96820.25
2022-12-28T16:56:01.487Z,96811.28
2022-12-28T16:58:29.804Z,96829.72
2022-12-28T17:00:57.418Z,96835.19
2022-12-28T17:03:25.043Z,96833.81
2022-12-28T17:05:52.638Z,96828.47
2022-12-28T17:08:19.811Z,96827.59
2022-12-28T17:10:46.668Z,96826.53
2022-12-28T17:13:13.261Z,96816.28
2022-12-28T17:15:40.614Z,96816.00
2022-12-28T17:18:07.437Z,96822.84
2022-12-28T17:20:38.502Z,96810.34
2022-12-28T17:23:06.482Z,96808.50
2022-12-28T17:25:34.019Z,96810.06
2022-12-28T17:28:01.424Z,96800.94
2022-12-28T17:30:28.873Z,96796.50
2022-12-28T17:32:55.820Z,96780.34
2022-12-28T17:35:22.675Z,96769.53
2022-12-28T17:37:49.412Z,96745.00
2022-12-28T17:40:16.277Z,96757.94
2022-12-28T17:42:43.381Z,96753.06
2022-12-28T17:45:11.953Z,96753.06
2022-12-28T17:47:39.990Z,96739.66
2022-12-28T17:50:07.544Z,96746.97
2022-12-28T17:52:36.710Z,96735.69
2022-12-28T17:55:03.719Z,96732.63
2022-12-28T17:57:34.050Z,96734.94
2022-12-28T18:00:06.592Z,96727.78
2022-12-28T18:02:41.436Z,96733.09
2022-12-28T18:05:08.490Z,96721.66
2022-12-28T18:07:35.195Z,96719.53
2022-12-28T18:10:02.016Z,96690.13
2022-12-28T18:12:28.759Z,96707.66
2022-12-28T18:14:55.507Z,96709.31
2022-12-28T18:17:23.489Z,96719.69
2022-12-28T18:19:53.607Z,96705.84
2022-12-28T18:22:23.091Z,96709.03
2022-12-28T18:24:50.797Z,96706.09
2022-12-28T18:27:17.805Z,96698.03
2022-12-28T18:29:45.365Z,96704.44
2022-12-28T18:32:12.297Z,96703.22
2022-12-28T18:34:39.100Z,96696.50
2022-12-28T18:37:05.920Z,96677.13
2022-12-28T18:39:33.490Z,96679.72
2022-12-28T18:42:01.593Z,96674.28
2022-12-28T18:44:28.384Z,96689.97
2022-12-28T18:46:55.198Z,96672.78
2022-12-28T18:49:22.022Z,96678.56
2022-12-28T18:51:48.737Z,96671.09
2022-12-28T18:54:15.368Z,96673.69
2022-12-28T18:56:42.048Z,96663.63
2022-12-28T18:59:08.629Z,96659.97
2022-12-28T19:04:30.368Z,96651.59
2022-12-28T19:06:57.204Z,96678.84
2022-12-28T19:09:23.901Z,96682.66
2022-12-28T19:11:50.587Z,96677.94
2022-12-28T19:14:17.241Z,96671.97
2022-12-28T19:16:45.210Z,96678.22
2022-12-28T19:19:12.038Z,96683.53
2022-12-28T19:21:40.911Z,96672.75
2022-12-28T19:24:14.622Z,96674.53
2022-12-28T19:26:41.527Z,96669.06
2022-12-28T19:29:12.696Z,96662.53
2022-12-28T19:31:39.609Z,96656.75
2022-12-28T19:34:06.584Z,96658.56
2022-12-28T19:36:33.317Z,96632.81
2022-12-28T19:38:59.956Z,96630.22
2022-12-28T19:41:26.624Z,96628.38
2022-12-28T19:43:53.753Z,96636.75
2022-12-28T19:46:32.166Z,96628.53
2022-12-28T19:49:04.293Z,96646.94
2022-12-28T19:51:32.764Z,96627.16
2022-12-28T19:54:00.437Z,96627.78
2022-12-28T19:56:27.262Z,96622.59
2022-12-28T19:58:58.083Z,96609.78
2022-12-28T20:01:28.783Z,96618.63
2022-12-28T20:03:56.286Z,96601.72
2022-12-28T20:06:27.246Z,96598.84
2022-12-28T20:08:56.455Z,96598.50
2022-12-28T20:11:23.600Z,96587.84
2022-12-28T20:13:52.162Z,96581.59
2022-12-28T20:16:19.363Z,96581.69
2022-12-28T20:18:49.082Z,96573.91
2022-12-28T20:21:19.568Z,96570.88
2022-12-28T20:23:48.659Z,96579.50
2022-12-28T20:26:16.326Z,96590.75
2022-12-28T20:28:42.942Z,96584.34
2022-12-28T20:31:13.821Z,96576.47
2022-12-28T20:33:45.525Z,96586.78
2022-12-28T20:36:14.809Z,96590.47
2022-12-28T20:38:41.914Z,96591.69
2022-12-28T20:41:34.919Z,96581.31
2022-12-28T20:44:04.758Z,96595.28
2022-12-28T20:46:34.907Z,96590.94
2022-12-28T20:49:01.748Z,96591.72
2022-12-28T20:51:28.913Z,96604.63
2022-12-28T20:53:55.738Z,96598.53
2022-12-28T20:56:23.265Z,96581.22
2022-12-28T20:58:50.479Z,96563.91
2022-12-28T21:01:18.133Z,96551.16
2022-12-28T21:03:46.164Z,96530.91
2022-12-28T21:06:13.400Z,96517.69
2022-12-28T21:08:40.351Z,96490.31
2022-12-28T21:11:07.375Z,96480.06
2022-12-28T21:13:35.269Z,96485.09
2022-12-28T21:16:05.800Z,96488.63
2022-12-28T21:18:33.059Z,96496.22
2022-12-28T21:21:00.332Z,96477.75
2022-12-28T21:23:30.987Z,96480.88
2022-12-28T21:26:05.627Z,96457.63
2022-12-28T21:28:33.565Z,96448.88
2022-12-28T21:31:03.082Z,96436.66
2022-12-28T21:33:29.708Z,96439.50
2022-12-28T21:36:01.832Z,96426.69
2022-12-28T21:38:29.119Z,96422.34
2022-12-28T21:41:00.046Z,96421.41
2022-12-28T21:43:27.256Z,96418.16
2022-12-28T21:46:02.949Z,96419.47
2022-12-28T21:48:34.784Z,96421.41
2022-12-28T21:51:34.166Z,96425.13
2022-12-28T21:54:09.685Z,96411.94
2022-12-28T21:56:36.724Z,96415.41
2022-12-28T21:59:04.590Z,96395.59
2022-12-28T22:01:50.666Z,96384.38
2022-12-28T22:04:39.254Z,96377.97
2022-12-28T22:07:07.514Z,96376.22
2022-12-28T22:09:53.585Z,96380.00
2022-12-28T22:12:37.407Z,96374.50
2022-12-28T22:15:34.289Z,96362.94
2022-12-28T22:18:07.258Z,96359.06
2022-12-28T22:20:35.975Z,96362.41
2022-12-28T22:23:03.622Z,96350.94
2022-12-28T22:25:31.341Z,96342.72
2022-12-28T22:27:58.331Z,96332.34
2022-12-28T22:30:25.614Z,96319.78
2022-12-28T22:32:52.771Z,96314.94
2022-12-28T22:35:19.786Z,96309.81
2022-12-28T22:37:46.913Z,96309.63
2022-12-28T22:40:14.206Z,96311.56
2022-12-28T22:42:45.988Z,96311.16
2022-12-28T22:45:15.104Z,96303.75
2022-12-28T22:47:42.633Z,96290.69
2022-12-28T22:50:12.314Z,96275.53
2022-12-28T22:52:39.461Z,96270.13
2022-12-28T22:55:06.822Z,96274.44
2022-12-28T22:57:34.125Z,96278.44
2022-12-28T23:00:00.834Z,96274.06
2022-12-28T23:02:30.300Z,96255.22
2022-12-28T23:04:57.211Z,96281.16
2022-12-28T23:07:23.945Z,96282.38
2022-12-28T23:09:50.545Z,96308.47
2022-12-28T23:12:17.138Z,96310.72
2022-12-28T23:15:02.380Z,96318.06
2022-12-28T23:17:29.288Z,96305.25
2022-12-28T23:20:19.230Z,96358.28
2022-12-28T23:23:04.120Z,96353.19
2022-12-28T23:25:49.421Z,96362.28
2022-12-28T23:28:17.236Z,96365.84
2022-12-28T23:30:46.753Z,96368.78
2022-12-28T23:33:13.992Z,96369.34
2022-12-28T23:35:40.640Z,96367.25
2022-12-28T23:38:07.370Z,96372.00
2022-12-28T23:40:34.013Z,96384.25
2022-12-28T23:43:00.635Z,96371.47
2022-12-28T23:45:27.287Z,96379.13
2022-12-28T23:47:54.124Z,96363.59
2022-12-28T23:50:21.190Z,96365.44
2022-12-28T23:52:47.850Z,96364.88
2022-12-28T23:55:14.620Z,96327.94
2022-12-28T23:57:41.588Z,96324.25
